sensor_id;sensor_type;location;lat;lon;timestamp;P1;durP1;ratioP1;P2;durP2;ratioP2
21030;SDS011;61072;47.808;7.636;2022-09-24T00:01:25;7.65;;;3.70;;
21030;SDS011;61072;47.808;7.636;2022-09-24T00:03:54;5.10;;;3.47;;
21030;SDS011;61072;47.808;7.636;2022-09-24T00:06:27;17.50;;;3.80;;
21030;SDS011;61072;47.808;7.636;2022-09-24T00:08:55;5.45;;;3.42;;
21030;SDS011;61072;47.808;7.636;2022-09-24T00:11:24;7.03;;;3.90;;
21030;SDS011;61072;47.808;7.636;2022-09-24T00:13:52;5.07;;;3.67;;
21030;SDS011;61072;47.808;7.636;2022-09-24T00:16:21;7.68;;;3.63;;
21030;SDS011;61072;47.808;7.636;2022-09-24T00:18:51;8.50;;;3.42;;
21030;SDS011;61072;47.808;7.636;2022-09-24T00:21:26;5.18;;;3.50;;
21030;SDS011;61072;47.808;7.636;2022-09-24T00:24:02;5.10;;;2.65;;
21030;SDS011;61072;47.808;7.636;2022-09-24T00:26:32;3.45;;;2.53;;
21030;SDS011;61072;47.808;7.636;2022-09-24T00:29:21;4.82;;;3.30;;
21030;SDS011;61072;47.808;7.636;2022-09-24T00:31:49;5.03;;;2.80;;
21030;SDS011;61072;47.808;7.636;2022-09-24T00:34:18;3.10;;;2.72;;
21030;SDS011;61072;47.808;7.636;2022-09-24T00:36:45;7.90;;;2.92;;
21030;SDS011;61072;47.808;7.636;2022-09-24T00:39:12;5.10;;;2.97;;
21030;SDS011;61072;47.808;7.636;2022-09-24T00:41:40;5.00;;;2.90;;
21030;SDS011;61072;47.808;7.636;2022-09-24T00:49:54;4.07;;;3.17;;
21030;SDS011;61072;47.808;7.636;2022-09-24T00:52:27;11.20;;;3.28;;
21030;SDS011;61072;47.808;7.636;2022-09-24T00:54:54;4.70;;;3.13;;
21030;SDS011;61072;47.808;7.636;2022-09-24T00:57:21;8.73;;;3.33;;
21030;SDS011;61072;47.808;7.636;2022-09-24T00:59:49;3.65;;;2.63;;
21030;SDS011;61072;47.808;7.636;2022-09-24T01:02:16;3.90;;;2.65;;
21030;SDS011;61072;47.808;7.636;2022-09-24T01:04:43;3.83;;;2.35;;
21030;SDS011;61072;47.808;7.636;2022-09-24T01:07:09;3.85;;;2.47;;
21030;SDS011;61072;47.808;7.636;2022-09-24T01:09:37;7.15;;;2.80;;
21030;SDS011;61072;47.808;7.636;2022-09-24T01:12:13;3.78;;;2.63;;
21030;SDS011;61072;47.808;7.636;2022-09-24T01:15:11;3.38;;;3.00;;
21030;SDS011;61072;47.808;7.636;2022-09-24T01:17:57;5.10;;;2.75;;
21030;SDS011;61072;47.808;7.636;2022-09-24T01:21:13;6.05;;;2.88;;
21030;SDS011;61072;47.808;7.636;2022-09-24T01:23:49;6.20;;;2.90;;
21030;SDS011;61072;47.808;7.636;2022-09-24T01:26:44;3.47;;;2.45;;
21030;SDS011;61072;47.808;7.636;2022-09-24T01:33:02;5.30;;;1.92;;
21030;SDS011;61072;47.808;7.636;2022-09-24T01:35:22;4.90;;;2.08;;
21030;SDS011;61072;47.808;7.636;2022-09-24T01:37:55;4.28;;;2.15;;
21030;SDS011;61072;47.808;7.636;2022-09-24T01:40:28;3.28;;;2.10;;
21030;SDS011;61072;47.808;7.636;2022-09-24T01:42:56;6.05;;;2.85;;
21030;SDS011;61072;47.808;7.636;2022-09-24T01:45:28;4.03;;;2.15;;
21030;SDS011;61072;47.808;7.636;2022-09-24T01:48:00;8.88;;;2.42;;
21030;SDS011;61072;47.808;7.636;2022-09-24T01:50:28;2.83;;;2.05;;
21030;SDS011;61072;47.808;7.636;2022-09-24T01:52:59;2.95;;;2.00;;
21030;SDS011;61072;47.808;7.636;2022-09-24T01:55:32;2.83;;;2.50;;
21030;SDS011;61072;47.808;7.636;2022-09-24T01:58:04;3.67;;;2.25;;
21030;SDS011;61072;47.808;7.636;2022-09-24T02:00:36;4.90;;;2.28;;
21030;SDS011;61072;47.808;7.636;2022-09-24T02:03:16;4.00;;;2.47;;
21030;SDS011;61072;47.808;7.636;2022-09-24T02:05:49;2.47;;;1.90;;
21030;SDS011;61072;47.808;7.636;2022-09-24T02:08:40;2.70;;;1.85;;
21030;SDS011;61072;47.808;7.636;2022-09-24T02:11:12;3.70;;;2.28;;
21030;SDS011;61072;47.808;7.636;2022-09-24T02:13:42;3.53;;;1.75;;
21030;SDS011;61072;47.808;7.636;2022-09-24T02:16:23;4.90;;;2.05;;
21030;SDS011;61072;47.808;7.636;2022-09-24T02:18:56;3.60;;;1.83;;
21030;SDS011;61072;47.808;7.636;2022-09-24T02:21:27;3.03;;;2.20;;
21030;SDS011;61072;47.808;7.636;2022-09-24T02:23:58;3.42;;;1.98;;
21030;SDS011;61072;47.808;7.636;2022-09-24T02:26:29;2.65;;;1.90;;
21030;SDS011;61072;47.808;7.636;2022-09-24T02:28:56;5.30;;;1.95;;
21030;SDS011;61072;47.808;7.636;2022-09-24T02:31:26;3.65;;;1.85;;
21030;SDS011;61072;47.808;7.636;2022-09-24T02:33:56;3.85;;;2.20;;
21030;SDS011;61072;47.808;7.636;2022-09-24T02:36:53;4.75;;;2.22;;
21030;SDS011;61072;47.808;7.636;2022-09-24T02:39:24;3.70;;;2.42;;
21030;SDS011;61072;47.808;7.636;2022-09-24T02:41:51;4.25;;;2.35;;
21030;SDS011;61072;47.808;7.636;2022-09-24T02:44:19;3.22;;;2.15;;
21030;SDS011;61072;47.808;7.636;2022-09-24T02:46:47;3.40;;;2.17;;
21030;SDS011;61072;47.808;7.636;2022-09-24T02:49:16;3.22;;;2.60;;
21030;SDS011;61072;47.808;7.636;2022-09-24T02:51:43;4.25;;;2.50;;
21030;SDS011;61072;47.808;7.636;2022-09-24T02:54:11;4.07;;;3.28;;
21030;SDS011;61072;47.808;7.636;2022-09-24T02:56:37;4.00;;;3.08;;
21030;SDS011;61072;47.808;7.636;2022-09-24T02:59:05;4.72;;;3.00;;
21030;SDS011;61072;47.808;7.636;2022-09-24T03:01:31;4.13;;;3.00;;
21030;SDS011;61072;47.808;7.636;2022-09-24T03:03:59;4.30;;;2.50;;
21030;SDS011;61072;47.808;7.636;2022-09-24T03:06:27;3.50;;;2.53;;
21030;SDS011;61072;47.808;7.636;2022-09-24T03:08:54;4.32;;;2.60;;
21030;SDS011;61072;47.808;7.636;2022-09-24T03:11:21;3.67;;;2.78;;
21030;SDS011;61072;47.808;7.636;2022-09-24T03:13:48;2.65;;;2.30;;
21030;SDS011;61072;47.808;7.636;2022-09-24T03:16:16;4.75;;;2.70;;
21030;SDS011;61072;47.808;7.636;2022-09-24T03:18:44;4.82;;;2.60;;
21030;SDS011;61072;47.808;7.636;2022-09-24T03:21:12;4.88;;;2.60;;
21030;SDS011;61072;47.808;7.636;2022-09-24T03:23:41;2.95;;;2.17;;
21030;SDS011;61072;47.808;7.636;2022-09-24T03:26:08;5.80;;;2.50;;
21030;SDS011;61072;47.808;7.636;2022-09-24T03:28:35;3.35;;;2.00;;
21030;SDS011;61072;47.808;7.636;2022-09-24T03:31:02;4.15;;;2.10;;
21030;SDS011;61072;47.808;7.636;2022-09-24T03:33:48;4.93;;;2.25;;
21030;SDS011;61072;47.808;7.636;2022-09-24T03:36:19;3.55;;;2.22;;
21030;SDS011;61072;47.808;7.636;2022-09-24T03:38:51;5.15;;;2.95;;
21030;SDS011;61072;47.808;7.636;2022-09-24T03:41:22;2.80;;;2.30;;
21030;SDS011;61072;47.808;7.636;2022-09-24T03:43:50;4.32;;;2.17;;
21030;SDS011;61072;47.808;7.636;2022-09-24T03:46:17;2.42;;;1.95;;
21030;SDS011;61072;47.808;7.636;2022-09-24T03:48:44;3.17;;;2.00;;
21030;SDS011;61072;47.808;7.636;2022-09-24T03:51:13;4.80;;;2.00;;
21030;SDS011;61072;47.808;7.636;2022-09-24T03:53:41;3.83;;;2.25;;
21030;SDS011;61072;47.808;7.636;2022-09-24T03:56:08;5.82;;;2.67;;
21030;SDS011;61072;47.808;7.636;2022-09-24T03:58:37;3.90;;;2.53;;
21030;SDS011;61072;47.808;7.636;2022-09-24T04:01:05;3.00;;;2.10;;
21030;SDS011;61072;47.808;7.636;2022-09-24T04:03:32;2.97;;;1.85;;
21030;SDS011;61072;47.808;7.636;2022-09-24T04:06:01;2.45;;;2.00;;
21030;SDS011;61072;47.808;7.636;2022-09-24T04:08:28;4.28;;;1.90;;
21030;SDS011;61072;47.808;7.636;2022-09-24T04:10:56;2.25;;;1.85;;
21030;SDS011;61072;47.808;7.636;2022-09-24T04:13:23;2.58;;;2.00;;
21030;SDS011;61072;47.808;7.636;2022-09-24T04:15:50;2.55;;;2.17;;
21030;SDS011;61072;47.808;7.636;2022-09-24T04:18:18;3.45;;;1.90;;
21030;SDS011;61072;47.808;7.636;2022-09-24T04:20:45;2.20;;;1.80;;
21030;SDS011;61072;47.808;7.636;2022-09-24T04:23:12;2.97;;;2.10;;
21030;SDS011;61072;47.808;7.636;2022-09-24T04:25:39;2.45;;;1.92;;
21030;SDS011;61072;47.808;7.636;2022-09-24T04:28:07;3.78;;;2.78;;
21030;SDS011;61072;47.808;7.636;2022-09-24T04:30:35;3.35;;;2.22;;
21030;SDS011;61072;47.808;7.636;2022-09-24T04:33:03;3.22;;;1.90;;
21030;SDS011;61072;47.808;7.636;2022-09-24T04:35:30;2.85;;;1.80;;
21030;SDS011;61072;47.808;7.636;2022-09-24T04:37:58;2.45;;;2.08;;
21030;SDS011;61072;47.808;7.636;2022-09-24T04:40:25;3.00;;;2.13;;
21030;SDS011;61072;47.808;7.636;2022-09-24T04:42:52;2.47;;;1.83;;
21030;SDS011;61072;47.808;7.636;2022-09-24T04:45:19;2.85;;;2.10;;
21030;SDS011;61072;47.808;7.636;2022-09-24T04:47:47;5.97;;;2.10;;
21030;SDS011;61072;47.808;7.636;2022-09-24T04:50:21;4.18;;;2.03;;
21030;SDS011;61072;47.808;7.636;2022-09-24T04:52:49;4.25;;;2.10;;
21030;SDS011;61072;47.808;7.636;2022-09-24T04:55:15;3.30;;;2.05;;
21030;SDS011;61072;47.808;7.636;2022-09-24T04:57:43;1.85;;;1.60;;
21030;SDS011;61072;47.808;7.636;2022-09-24T05:00:11;4.90;;;2.38;;
21030;SDS011;61072;47.808;7.636;2022-09-24T05:02:40;6.10;;;2.00;;
21030;SDS011;61072;47.808;7.636;2022-09-24T05:05:08;2.35;;;2.10;;
21030;SDS011;61072;47.808;7.636;2022-09-24T05:07:36;2.88;;;2.00;;
21030;SDS011;61072;47.808;7.636;2022-09-24T05:10:03;3.55;;;1.88;;
21030;SDS011;61072;47.808;7.636;2022-09-24T05:12:31;3.35;;;2.30;;
21030;SDS011;61072;47.808;7.636;2022-09-24T05:15:00;3.63;;;2.47;;
21030;SDS011;61072;47.808;7.636;2022-09-24T05:17:27;3.38;;;2.25;;
21030;SDS011;61072;47.808;7.636;2022-09-24T05:19:54;3.83;;;2.00;;
21030;SDS011;61072;47.808;7.636;2022-09-24T05:22:23;3.42;;;2.20;;
21030;SDS011;61072;47.808;7.636;2022-09-24T05:24:52;2.90;;;2.20;;
21030;SDS011;61072;47.808;7.636;2022-09-24T05:27:19;3.00;;;2.20;;
21030;SDS011;61072;47.808;7.636;2022-09-24T05:29:48;3.47;;;2.08;;
21030;SDS011;61072;47.808;7.636;2022-09-24T05:32:16;3.10;;;1.90;;
21030;SDS011;61072;47.808;7.636;2022-09-24T05:34:45;4.75;;;2.20;;
21030;SDS011;61072;47.808;7.636;2022-09-24T05:37:12;2.22;;;1.83;;
21030;SDS011;61072;47.808;7.636;2022-09-24T05:39:40;4.63;;;2.33;;
21030;SDS011;61072;47.808;7.636;2022-09-24T05:42:08;3.00;;;1.88;;
21030;SDS011;61072;47.808;7.636;2022-09-24T05:44:35;3.17;;;2.15;;
21030;SDS011;61072;47.808;7.636;2022-09-24T05:47:03;4.97;;;2.30;;
21030;SDS011;61072;47.808;7.636;2022-09-24T05:49:29;2.30;;;1.88;;
21030;SDS011;61072;47.808;7.636;2022-09-24T05:51:57;3.53;;;1.80;;
21030;SDS011;61072;47.808;7.636;2022-09-24T05:54:24;4.13;;;2.00;;
21030;SDS011;61072;47.808;7.636;2022-09-24T05:56:51;2.13;;;1.80;;
21030;SDS011;61072;47.808;7.636;2022-09-24T05:59:17;4.00;;;2.30;;
21030;SDS011;61072;47.808;7.636;2022-09-24T06:01:44;2.33;;;1.88;;
21030;SDS011;61072;47.808;7.636;2022-09-24T06:04:11;2.22;;;1.75;;
21030;SDS011;61072;47.808;7.636;2022-09-24T06:06:37;1.95;;;1.75;;
21030;SDS011;61072;47.808;7.636;2022-09-24T06:09:04;2.15;;;1.67;;
21030;SDS011;61072;47.808;7.636;2022-09-24T06:11:31;2.50;;;1.70;;
21030;SDS011;61072;47.808;7.636;2022-09-24T06:14:06;4.20;;;1.85;;
21030;SDS011;61072;47.808;7.636;2022-09-24T06:16:34;2.13;;;1.92;;
21030;SDS011;61072;47.808;7.636;2022-09-24T06:19:01;3.08;;;2.05;;
21030;SDS011;61072;47.808;7.636;2022-09-24T06:21:28;3.47;;;2.20;;
21030;SDS011;61072;47.808;7.636;2022-09-24T06:23:54;3.17;;;2.05;;
21030;SDS011;61072;47.808;7.636;2022-09-24T06:26:21;2.60;;;1.95;;
21030;SDS011;61072;47.808;7.636;2022-09-24T06:28:48;3.30;;;1.75;;
21030;SDS011;61072;47.808;7.636;2022-09-24T06:31:14;2.70;;;1.90;;
21030;SDS011;61072;47.808;7.636;2022-09-24T06:33:41;3.17;;;2.20;;
21030;SDS011;61072;47.808;7.636;2022-09-24T06:36:08;2.42;;;1.88;;
21030;SDS011;61072;47.808;7.636;2022-09-24T06:38:35;3.63;;;1.83;;
21030;SDS011;61072;47.808;7.636;2022-09-24T06:41:04;2.42;;;1.80;;
21030;SDS011;61072;47.808;7.636;2022-09-24T06:43:32;2.42;;;1.65;;
21030;SDS011;61072;47.808;7.636;2022-09-24T06:45:59;4.55;;;2.00;;
21030;SDS011;61072;47.808;7.636;2022-09-24T06:48:27;4.25;;;2.42;;
21030;SDS011;61072;47.808;7.636;2022-09-24T06:50:54;3.90;;;2.50;;
21030;SDS011;61072;47.808;7.636;2022-09-24T06:53:21;3.47;;;2.78;;
21030;SDS011;61072;47.808;7.636;2022-09-24T06:55:48;2.35;;;1.90;;
21030;SDS011;61072;47.808;7.636;2022-09-24T06:58:17;3.92;;;2.20;;
21030;SDS011;61072;47.808;7.636;2022-09-24T07:01:03;3.20;;;2.08;;
21030;SDS011;61072;47.808;7.636;2022-09-24T07:03:32;2.65;;;2.00;;
21030;SDS011;61072;47.808;7.636;2022-09-24T07:06:00;3.72;;;2.30;;
21030;SDS011;61072;47.808;7.636;2022-09-24T07:08:28;3.15;;;1.90;;
21030;SDS011;61072;47.808;7.636;2022-09-24T07:10:56;3.13;;;2.00;;
21030;SDS011;61072;47.808;7.636;2022-09-24T07:13:22;3.97;;;2.10;;
21030;SDS011;61072;47.808;7.636;2022-09-24T07:15:50;2.25;;;2.05;;
21030;SDS011;61072;47.808;7.636;2022-09-24T07:18:18;3.17;;;2.00;;
21030;SDS011;61072;47.808;7.636;2022-09-24T07:20:52;3.10;;;1.60;;
21030;SDS011;61072;47.808;7.636;2022-09-24T07:23:19;4.18;;;2.00;;
21030;SDS011;61072;47.808;7.636;2022-09-24T07:25:47;4.38;;;2.20;;
21030;SDS011;61072;47.808;7.636;2022-09-24T07:28:15;2.50;;;1.92;;
21030;SDS011;61072;47.808;7.636;2022-09-24T07:30:42;3.17;;;2.30;;
21030;SDS011;61072;47.808;7.636;2022-09-24T07:33:09;6.55;;;2.80;;
21030;SDS011;61072;47.808;7.636;2022-09-24T07:35:36;2.20;;;1.60;;
21030;SDS011;61072;47.808;7.636;2022-09-24T07:38:09;5.45;;;2.10;;
21030;SDS011;61072;47.808;7.636;2022-09-24T07:40:40;3.92;;;2.00;;
21030;SDS011;61072;47.808;7.636;2022-09-24T07:43:07;4.85;;;1.85;;
21030;SDS011;61072;47.808;7.636;2022-09-24T07:45:37;2.30;;;1.75;;
21030;SDS011;61072;47.808;7.636;2022-09-24T07:48:04;3.17;;;2.22;;
21030;SDS011;61072;47.808;7.636;2022-09-24T07:50:32;3.35;;;1.73;;
21030;SDS011;61072;47.808;7.636;2022-09-24T07:53:03;1.90;;;1.70;;
21030;SDS011;61072;47.808;7.636;2022-09-24T07:55:31;3.58;;;2.10;;
21030;SDS011;61072;47.808;7.636;2022-09-24T07:58:05;3.20;;;2.22;;
21030;SDS011;61072;47.808;7.636;2022-09-24T08:00:34;2.88;;;2.60;;
21030;SDS011;61072;47.808;7.636;2022-09-24T08:03:01;3.35;;;1.80;;
21030;SDS011;61072;47.808;7.636;2022-09-24T08:05:28;2.78;;;1.73;;
21030;SDS011;61072;47.808;7.636;2022-09-24T08:07:56;5.28;;;2.00;;
21030;SDS011;61072;47.808;7.636;2022-09-24T08:10:24;3.00;;;2.08;;
21030;SDS011;61072;47.808;7.636;2022-09-24T08:12:52;3.20;;;2.00;;
21030;SDS011;61072;47.808;7.636;2022-09-24T08:15:19;4.35;;;2.50;;
21030;SDS011;61072;47.808;7.636;2022-09-24T08:17:47;4.47;;;2.20;;
21030;SDS011;61072;47.808;7.636;2022-09-24T08:20:14;2.10;;;1.90;;
21030;SDS011;61072;47.808;7.636;2022-09-24T08:22:41;3.17;;;2.22;;
21030;SDS011;61072;47.808;7.636;2022-09-24T08:25:08;3.65;;;2.30;;
21030;SDS011;61072;47.808;7.636;2022-09-24T08:27:35;5.30;;;2.00;;
21030;SDS011;61072;47.808;7.636;2022-09-24T08:30:05;3.95;;;1.95;;
21030;SDS011;61072;47.808;7.636;2022-09-24T08:32:32;2.60;;;1.77;;
21030;SDS011;61072;47.808;7.636;2022-09-24T08:34:59;5.95;;;2.80;;
21030;SDS011;61072;47.808;7.636;2022-09-24T08:37:26;2.88;;;2.50;;
21030;SDS011;61072;47.808;7.636;2022-09-24T08:39:54;5.03;;;2.58;;
21030;SDS011;61072;47.808;7.636;2022-09-24T08:45:02;2.83;;;1.80;;
21030;SDS011;61072;47.808;7.636;2022-09-24T08:47:53;3.03;;;2.00;;
21030;SDS011;61072;47.808;7.636;2022-09-24T08:50:26;3.97;;;1.98;;
21030;SDS011;61072;47.808;7.636;2022-09-24T08:53:11;3.42;;;1.83;;
21030;SDS011;61072;47.808;7.636;2022-09-24T08:55:48;2.92;;;1.80;;
21030;SDS011;61072;47.808;7.636;2022-09-24T08:58:22;2.38;;;1.88;;
21030;SDS011;61072;47.808;7.636;2022-09-24T09:01:10;4.68;;;1.90;;
21030;SDS011;61072;47.808;7.636;2022-09-24T09:03:49;4.28;;;2.53;;
21030;SDS011;61072;47.808;7.636;2022-09-24T09:09:24;5.47;;;1.92;;
21030;SDS011;61072;47.808;7.636;2022-09-24T09:12:07;3.47;;;1.60;;
21030;SDS011;61072;47.808;7.636;2022-09-24T09:14:59;2.33;;;1.80;;
21030;SDS011;61072;47.808;7.636;2022-09-24T09:17:40;2.97;;;1.70;;
21030;SDS011;61072;47.808;7.636;2022-09-24T09:20:18;4.57;;;1.52;;
21030;SDS011;61072;47.808;7.636;2022-09-24T09:22:49;4.50;;;1.85;;
21030;SDS011;61072;47.808;7.636;2022-09-24T09:30:44;2.75;;;2.00;;
21030;SDS011;61072;47.808;7.636;2022-09-24T09:42:38;2.95;;;1.60;;
21030;SDS011;61072;47.808;7.636;2022-09-24T09:48:10;2.28;;;1.63;;
21030;SDS011;61072;47.808;7.636;2022-09-24T09:50:43;2.08;;;1.20;;
21030;SDS011;61072;47.808;7.636;2022-09-24T09:53:20;4.28;;;1.90;;
21030;SDS011;61072;47.808;7.636;2022-09-24T09:55:55;3.58;;;1.63;;
21030;SDS011;61072;47.808;7.636;2022-09-24T09:58:24;1.95;;;1.67;;
21030;SDS011;61072;47.808;7.636;2022-09-24T10:01:03;1.52;;;1.02;;
21030;SDS011;61072;47.808;7.636;2022-09-24T10:03:45;2.42;;;1.52;;
21030;SDS011;61072;47.808;7.636;2022-09-24T10:06:23;3.72;;;1.90;;
21030;SDS011;61072;47.808;7.636;2022-09-24T10:08:52;1.95;;;1.65;;
21030;SDS011;61072;47.808;7.636;2022-09-24T10:11:20;2.80;;;1.58;;
21030;SDS011;61072;47.808;7.636;2022-09-24T10:14:00;1.67;;;1.38;;
21030;SDS011;61072;47.808;7.636;2022-09-24T10:16:34;1.77;;;1.52;;
21030;SDS011;61072;47.808;7.636;2022-09-24T10:19:20;4.30;;;1.67;;
21030;SDS011;61072;47.808;7.636;2022-09-24T10:21:49;2.20;;;1.50;;
21030;SDS011;61072;47.808;7.636;2022-09-24T10:24:22;2.10;;;1.60;;
21030;SDS011;61072;47.808;7.636;2022-09-24T10:26:51;3.95;;;2.58;;
21030;SDS011;61072;47.808;7.636;2022-09-24T10:29:40;10.18;;;4.72;;
21030;SDS011;61072;47.808;7.636;2022-09-24T10:32:25;10.80;;;5.63;;
21030;SDS011;61072;47.808;7.636;2022-09-24T10:34:58;13.65;;;6.28;;
21030;SDS011;61072;47.808;7.636;2022-09-24T10:37:27;8.65;;;4.70;;
21030;SDS011;61072;47.808;7.636;2022-09-24T10:40:13;9.50;;;4.32;;
21030;SDS011;61072;47.808;7.636;2022-09-24T10:42:42;7.15;;;4.38;;
21030;SDS011;61072;47.808;7.636;2022-09-24T10:45:10;4.85;;;3.35;;
21030;SDS011;61072;47.808;7.636;2022-09-24T10:47:49;8.02;;;4.30;;
21030;SDS011;61072;47.808;7.636;2022-09-24T10:57:56;3.42;;;1.95;;
21030;SDS011;61072;47.808;7.636;2022-09-24T11:00:36;4.00;;;2.08;;
21030;SDS011;61072;47.808;7.636;2022-09-24T11:03:19;3.80;;;1.65;;
21030;SDS011;61072;47.808;7.636;2022-09-24T11:06:01;2.47;;;1.67;;
21030;SDS011;61072;47.808;7.636;2022-09-24T11:19:49;1.25;;;1.15;;
21030;SDS011;61072;47.808;7.636;2022-09-24T11:25:14;2.85;;;1.20;;
21030;SDS011;61072;47.808;7.636;2022-09-24T11:27:58;1.88;;;1.38;;
21030;SDS011;61072;47.808;7.636;2022-09-24T11:33:37;2.25;;;1.23;;
21030;SDS011;61072;47.808;7.636;2022-09-24T11:42:13;2.40;;;1.05;;
21030;SDS011;61072;47.808;7.636;2022-09-24T11:47:21;1.58;;;1.17;;
21030;SDS011;61072;47.808;7.636;2022-09-24T11:50:14;2.03;;;1.00;;
21030;SDS011;61072;47.808;7.636;2022-09-24T11:52:53;1.70;;;1.23;;
21030;SDS011;61072;47.808;7.636;2022-09-24T12:00:41;4.97;;;1.50;;
21030;SDS011;61072;47.808;7.636;2022-09-24T12:08:42;2.15;;;1.20;;
21030;SDS011;61072;47.808;7.636;2022-09-24T12:16:36;3.45;;;1.40;;
21030;SDS011;61072;47.808;7.636;2022-09-24T12:19:25;1.55;;;1.30;;
21030;SDS011;61072;47.808;7.636;2022-09-24T12:21:58;2.15;;;1.40;;
21030;SDS011;61072;47.808;7.636;2022-09-24T12:24:35;2.90;;;1.30;;
21030;SDS011;61072;47.808;7.636;2022-09-24T12:27:12;1.63;;;1.27;;
21030;SDS011;61072;47.808;7.636;2022-09-24T12:33:34;1.45;;;1.35;;
21030;SDS011;61072;47.808;7.636;2022-09-24T12:38:37;3.58;;;1.67;;
21030;SDS011;61072;47.808;7.636;2022-09-24T12:41:19;2.47;;;1.73;;
21030;SDS011;61072;47.808;7.636;2022-09-24T12:46:43;1.92;;;1.48;;
21030;SDS011;61072;47.808;7.636;2022-09-24T12:51:52;1.83;;;1.60;;
21030;SDS011;61072;47.808;7.636;2022-09-24T12:57:03;2.03;;;1.40;;
21030;SDS011;61072;47.808;7.636;2022-09-24T12:59:52;2.85;;;1.40;;
21030;SDS011;61072;47.808;7.636;2022-09-24T13:02:21;2.43;;;1.70;;
21030;SDS011;61072;47.808;7.636;2022-09-24T13:11:00;2.80;;;1.88;;
21030;SDS011;61072;47.808;7.636;2022-09-24T13:12:58;2.50;;;1.65;;
21030;SDS011;61072;47.808;7.636;2022-09-24T13:15:38;3.20;;;1.63;;
21030;SDS011;61072;47.808;7.636;2022-09-24T13:20:37;3.17;;;2.13;;
21030;SDS011;61072;47.808;7.636;2022-09-24T13:28:31;2.35;;;1.98;;
21030;SDS011;61072;47.808;7.636;2022-09-24T13:36:51;1.63;;;1.50;;
21030;SDS011;61072;47.808;7.636;2022-09-24T13:42:14;2.95;;;2.00;;
21030;SDS011;61072;47.808;7.636;2022-09-24T13:44:46;2.30;;;1.35;;
21030;SDS011;61072;47.808;7.636;2022-09-24T13:50:08;4.20;;;2.67;;
21030;SDS011;61072;47.808;7.636;2022-09-24T13:52:49;1.98;;;1.55;;
21030;SDS011;61072;47.808;7.636;2022-09-24T13:58:03;6.97;;;2.85;;
21030;SDS011;61072;47.808;7.636;2022-09-24T14:00:30;4.25;;;1.98;;
21030;SDS011;61072;47.808;7.636;2022-09-24T14:03:17;5.30;;;2.42;;
21030;SDS011;61072;47.808;7.636;2022-09-24T14:05:51;3.88;;;2.38;;
21030;SDS011;61072;47.808;7.636;2022-09-24T14:08:20;2.15;;;1.90;;
21030;SDS011;61072;47.808;7.636;2022-09-24T14:10:48;2.53;;;2.10;;
21030;SDS011;61072;47.808;7.636;2022-09-24T14:13:25;1.98;;;1.63;;
21030;SDS011;61072;47.808;7.636;2022-09-24T14:15:53;3.15;;;1.80;;
21030;SDS011;61072;47.808;7.636;2022-09-24T14:18:22;3.00;;;1.92;;
21030;SDS011;61072;47.808;7.636;2022-09-24T14:20:52;2.03;;;1.77;;
21030;SDS011;61072;47.808;7.636;2022-09-24T14:23:24;3.33;;;1.90;;
21030;SDS011;61072;47.808;7.636;2022-09-24T14:25:56;2.45;;;1.60;;
21030;SDS011;61072;47.808;7.636;2022-09-24T14:28:25;2.00;;;1.55;;
21030;SDS011;61072;47.808;7.636;2022-09-24T14:30:54;2.30;;;1.65;;
21030;SDS011;61072;47.808;7.636;2022-09-24T14:33:22;3.00;;;2.30;;
21030;SDS011;61072;47.808;7.636;2022-09-24T14:35:57;3.80;;;2.10;;
21030;SDS011;61072;47.808;7.636;2022-09-24T14:38:35;3.75;;;2.80;;
21030;SDS011;61072;47.808;7.636;2022-09-24T14:41:23;4.07;;;2.40;;
21030;SDS011;61072;47.808;7.636;2022-09-24T14:43:54;4.00;;;2.35;;
21030;SDS011;61072;47.808;7.636;2022-09-24T14:46:26;5.32;;;2.75;;
21030;SDS011;61072;47.808;7.636;2022-09-24T14:49:03;4.72;;;2.78;;
21030;SDS011;61072;47.808;7.636;2022-09-24T14:51:32;4.50;;;2.47;;
21030;SDS011;61072;47.808;7.636;2022-09-24T14:54:00;6.10;;;2.47;;
21030;SDS011;61072;47.808;7.636;2022-09-24T14:56:30;3.17;;;2.22;;
21030;SDS011;61072;47.808;7.636;2022-09-24T14:58:58;5.15;;;2.38;;
21030;SDS011;61072;47.808;7.636;2022-09-24T15:01:29;7.72;;;3.95;;
21030;SDS011;61072;47.808;7.636;2022-09-24T15:04:02;5.93;;;3.22;;
21030;SDS011;61072;47.808;7.636;2022-09-24T15:06:31;2.88;;;2.10;;
21030;SDS011;61072;47.808;7.636;2022-09-24T15:09:34;3.42;;;1.80;;
21030;SDS011;61072;47.808;7.636;2022-09-24T15:12:04;4.97;;;2.10;;
21030;SDS011;61072;47.808;7.636;2022-09-24T15:14:35;3.95;;;2.40;;
21030;SDS011;61072;47.808;7.636;2022-09-24T15:17:09;2.50;;;2.20;;
21030;SDS011;61072;47.808;7.636;2022-09-24T15:19:46;3.17;;;1.60;;
21030;SDS011;61072;47.808;7.636;2022-09-24T15:22:13;1.70;;;1.27;;
21030;SDS011;61072;47.808;7.636;2022-09-24T15:24:40;1.90;;;1.45;;
21030;SDS011;61072;47.808;7.636;2022-09-24T15:27:23;3.25;;;1.30;;
21030;SDS011;61072;47.808;7.636;2022-09-24T15:29:53;1.67;;;1.23;;
21030;SDS011;61072;47.808;7.636;2022-09-24T15:32:22;2.30;;;1.35;;
21030;SDS011;61072;47.808;7.636;2022-09-24T15:34:48;2.38;;;2.03;;
21030;SDS011;61072;47.808;7.636;2022-09-24T15:37:18;2.80;;;1.67;;
21030;SDS011;61072;47.808;7.636;2022-09-24T15:39:47;2.13;;;1.20;;
21030;SDS011;61072;47.808;7.636;2022-09-24T15:42:18;2.05;;;1.42;;
21030;SDS011;61072;47.808;7.636;2022-09-24T15:44:49;2.25;;;1.35;;
21030;SDS011;61072;47.808;7.636;2022-09-24T15:47:16;5.60;;;1.80;;
21030;SDS011;61072;47.808;7.636;2022-09-24T15:49:43;2.08;;;1.30;;
21030;SDS011;61072;47.808;7.636;2022-09-24T15:54:56;2.00;;;1.48;;
21030;SDS011;61072;47.808;7.636;2022-09-24T15:57:25;2.40;;;1.25;;
21030;SDS011;61072;47.808;7.636;2022-09-24T15:59:52;2.35;;;1.50;;
21030;SDS011;61072;47.808;7.636;2022-09-24T16:02:24;6.30;;;1.35;;
21030;SDS011;61072;47.808;7.636;2022-09-24T16:04:54;4.13;;;1.30;;
21030;SDS011;61072;47.808;7.636;2022-09-24T16:07:25;4.53;;;1.33;;
21030;SDS011;61072;47.808;7.636;2022-09-24T16:09:52;1.30;;;1.08;;
21030;SDS011;61072;47.808;7.636;2022-09-24T16:12:19;2.15;;;1.55;;
21030;SDS011;61072;47.808;7.636;2022-09-24T16:14:46;3.13;;;1.25;;
21030;SDS011;61072;47.808;7.636;2022-09-24T16:17:12;3.90;;;1.45;;
21030;SDS011;61072;47.808;7.636;2022-09-24T16:19:39;4.38;;;1.60;;
21030;SDS011;61072;47.808;7.636;2022-09-24T16:22:06;2.80;;;2.05;;
21030;SDS011;61072;47.808;7.636;2022-09-24T16:24:33;3.58;;;1.40;;
21030;SDS011;61072;47.808;7.636;2022-09-24T16:27:01;4.15;;;1.85;;
21030;SDS011;61072;47.808;7.636;2022-09-24T16:29:27;3.75;;;2.08;;
21030;SDS011;61072;47.808;7.636;2022-09-24T16:31:54;5.30;;;2.28;;
21030;SDS011;61072;47.808;7.636;2022-09-24T16:34:21;2.92;;;2.05;;
21030;SDS011;61072;47.808;7.636;2022-09-24T16:36:48;3.17;;;2.15;;
21030;SDS011;61072;47.808;7.636;2022-09-24T16:39:14;4.55;;;2.38;;
21030;SDS011;61072;47.808;7.636;2022-09-24T16:41:41;4.93;;;2.60;;
21030;SDS011;61072;47.808;7.636;2022-09-24T16:44:09;5.85;;;2.65;;
21030;SDS011;61072;47.808;7.636;2022-09-24T16:46:40;3.70;;;2.83;;
21030;SDS011;61072;47.808;7.636;2022-09-24T16:49:07;5.25;;;3.35;;
21030;SDS011;61072;47.808;7.636;2022-09-24T16:51:35;4.28;;;2.38;;
21030;SDS011;61072;47.808;7.636;2022-09-24T16:54:03;3.83;;;2.20;;
21030;SDS011;61072;47.808;7.636;2022-09-24T16:56:33;3.63;;;2.20;;
21030;SDS011;61072;47.808;7.636;2022-09-24T16:59:00;3.35;;;2.38;;
21030;SDS011;61072;47.808;7.636;2022-09-24T17:01:26;3.47;;;2.13;;
21030;SDS011;61072;47.808;7.636;2022-09-24T17:03:54;2.55;;;1.92;;
21030;SDS011;61072;47.808;7.636;2022-09-24T17:06:26;3.42;;;2.20;;
21030;SDS011;61072;47.808;7.636;2022-09-24T17:08:54;3.72;;;2.03;;
21030;SDS011;61072;47.808;7.636;2022-09-24T17:11:40;3.08;;;2.40;;
21030;SDS011;61072;47.808;7.636;2022-09-24T17:14:08;7.82;;;2.58;;
21030;SDS011;61072;47.808;7.636;2022-09-24T17:16:36;5.63;;;4.25;;
21030;SDS011;61072;47.808;7.636;2022-09-24T17:19:04;7.85;;;4.00;;